Time;durP1;ratioP1;P1;durP2;ratioP2;P2;SDS_P1;SDS_P2;PMS_P1;PMS_P2;Temp;Humidity;BMP_temperature;BMP_pressure;BME280_temperature;BME280_humidity;BME280_pressure;Samples;Min_cycle;Max_cycle;Signal;HPM_P1;HPM_P2
2022/08/30 00:03:12;;;;;;;12.43;7.07;;;;;;;18.68;65.35;101961.66;5040563;28;20078;-61
2022/08/30 00:05:38;;;;;;;9.97;7.07;;;;;;;18.66;65.38;101963.41;5041012;28;20108;-60
2022/08/30 00:08:04;;;;;;;13.20;7.25;;;;;;;18.60;66.07;101959.81;5042535;28;20292;-60
2022/08/30 00:10:30;;;;;;;12.52;7.45;;;;;;;18.61;65.56;101960.72;5039030;28;20033;-60
2022/08/30 00:12:56;;;;;;;10.63;7.75;;;;;;;18.58;65.68;101958.94;5039654;28;20036;-60
2022/08/30 00:15:22;;;;;;;11.45;6.93;;;;;;;18.55;65.93;101961.56;5041325;28;20033;-60
2022/08/30 00:17:48;;;;;;;10.60;7.60;;;;;;;18.52;66.10;101958.88;5044014;28;20033;-60
2022/08/30 00:20:17;;;;;;;13.35;8.05;;;;;;;18.53;65.35;101963.28;5041641;28;20032;-59
2022/08/30 00:22:42;;;;;;;;;;;;;;;18.58;63.90;101961.59;5024306;28;20094;-60
2022/08/30 00:25:07;;;;;;;12.25;6.90;;;;;;;18.49;65.63;101960.63;5042609;28;20372;-60
2022/08/30 00:27:33;;;;;;;10.70;7.05;;;;;;;18.45;66.05;101958.81;5046150;28;20029;-60
2022/08/30 00:29:59;;;;;;;10.77;7.10;;;;;;;18.42;65.84;101965.84;5043222;28;20268;-60
2022/08/30 00:32:24;;;;;;;10.85;7.47;;;;;;;18.37;66.08;101970.19;5043079;28;20052;-60
2022/08/30 00:34:51;;;;;;;11.25;7.20;;;;;;;18.34;66.60;101972.78;5040730;28;20036;-60
2022/08/30 00:37:17;;;;;;;13.52;6.90;;;;;;;18.32;66.74;101965.72;5043027;28;20476;-61
2022/08/30 00:39:43;;;;;;;15.23;7.43;;;;;;;18.29;66.56;101963.06;5041536;28;20273;-60
2022/08/30 00:42:09;;;;;;;11.13;7.10;;;;;;;18.26;66.73;101963.91;5037586;28;20326;-61
2022/08/30 00:44:35;;;;;;;13.68;7.85;;;;;;;18.24;66.40;101957.75;5041914;28;20025;-60
2022/08/30 00:47:01;;;;;;;12.63;8.10;;;;;;;18.21;66.92;101958.59;5044026;28;20036;-61
2022/08/30 00:49:28;;;;;;;12.32;7.70;;;;;;;18.21;67.02;101965.63;5045792;28;20480;-59
2022/08/30 00:51:54;;;;;;;12.90;7.38;;;;;;;18.17;66.88;101962.06;5035788;28;20041;-60
2022/08/30 00:54:20;;;;;;;12.15;8.30;;;;;;;18.18;66.81;101968.25;5042264;28;20059;-60
2022/08/30 00:56:47;;;;;;;11.77;7.80;;;;;;;18.14;66.66;101967.31;5039442;28;20480;-59
2022/08/30 00:59:13;;;;;;;13.13;7.68;;;;;;;18.12;67.18;101966.44;5039096;28;20163;-61
2022/08/30 01:01:39;;;;;;;12.02;8.10;;;;;;;18.10;67.29;101968.16;5040808;28;20111;-60
2022/08/30 01:04:07;;;;;;;12.70;7.63;;;;;;;18.08;67.90;101975.19;5039047;28;20033;-60
2022/08/30 01:06:33;;;;;;;12.93;7.43;;;;;;;18.05;68.39;101973.38;5036611;28;20036;-59
2022/08/30 01:09:00;;;;;;;10.68;7.18;;;;;;;18.06;68.41;101974.25;5044161;28;20078;-60
2022/08/30 01:11:25;;;;;;;12.98;7.72;;;;;;;18.03;68.12;101971.59;5037893;28;20036;-60
2022/08/30 01:13:53;;;;;;;10.95;7.15;;;;;;;17.99;69.74;101980.38;5038996;28;20040;-60
2022/08/30 01:16:19;;;;;;;10.07;7.22;;;;;;;17.98;69.70;101979.47;5019984;28;20041;-60
2022/08/30 01:18:44;;;;;;;11.20;7.32;;;;;;;18.00;69.40;101977.75;5038526;28;20450;-61
2022/08/30 01:21:16;;;;;;;13.13;7.18;;;;;;;18.01;69.41;101975.97;5040303;28;20029;-60
2022/08/30 01:23:44;;;;;;;13.50;7.55;;;;;;;18.00;69.84;101982.13;5042328;28;20086;-60
2022/08/30 01:26:11;;;;;;;13.77;7.80;;;;;;;18.04;69.04;101983.91;5039062;28;20020;-60
2022/08/30 01:28:38;;;;;;;10.77;7.68;;;;;;;18.02;69.71;101989.19;5040049;28;20029;-60
2022/08/30 01:31:04;;;;;;;11.93;7.40;;;;;;;18.00;69.90;101980.38;5041241;28;21063;-60
2022/08/30 01:33:29;;;;;;;11.57;7.00;;;;;;;18.01;69.54;101975.97;5035365;28;20025;-60
2022/08/30 01:36:01;;;;;;;11.10;7.20;;;;;;;17.99;69.75;101970.69;5024244;28;20055;-61
2022/08/30 01:38:32;;;;;;;11.30;7.35;;;;;;;17.98;70.64;101978.59;5039758;28;20021;-59
2022/08/30 01:41:10;;;;;;;12.13;7.43;;;;;;;17.97;69.75;101971.53;5039666;28;20112;-59
2022/08/30 01:43:36;;;;;;;13.65;8.38;;;;;;;17.97;70.05;101963.63;5038185;28;20048;-59
2022/08/30 01:46:01;;;;;;;12.60;7.78;;;;;;;17.98;69.58;101968.03;5038928;28;20033;-60
2022/08/30 01:48:27;;;;;;;10.65;7.10;;;;;;;17.93;69.87;101967.09;5036740;28;20094;-60
2022/08/30 01:50:53;;;;;;;13.98;7.35;;;;;;;17.90;69.84;101968.84;5041107;28;20021;-58
2022/08/30 01:53:19;;;;;;;10.70;7.13;;;;;;;17.90;69.50;101973.19;5038259;28;20398;-60
2022/08/30 01:55:44;;;;;;;12.55;7.50;;;;;;;17.87;69.64;101976.69;5041984;28;20036;-60
2022/08/30 01:58:10;;;;;;;13.32;7.07;;;;;;;17.87;70.28;101970.50;5038579;28;20035;-60
2022/08/30 02:00:36;;;;;;;12.13;7.70;;;;;;;17.87;70.00;101984.59;5015032;28;20029;-60
2022/08/30 02:03:02;;;;;;;14.77;7.55;;;;;;;17.84;69.90;101975.75;5042738;28;20029;-61
2022/08/30 02:05:28;;;;;;;12.27;8.30;;;;;;;17.83;70.06;101972.22;5036626;28;20499;-60
2022/08/30 02:07:53;;;;;;;14.82;8.25;;;;;;;17.81;70.31;101975.72;5040856;28;20266;-59
2022/08/30 02:10:19;;;;;;;13.88;8.13;;;;;;;17.79;70.03;101966.91;5040533;28;20112;-60
2022/08/30 02:12:46;;;;;;;13.27;8.52;;;;;;;17.78;69.95;101966.00;5039134;28;20033;-60
2022/08/30 02:15:12;;;;;;;14.90;8.60;;;;;;;17.78;70.41;101960.75;5036536;28;20103;-60
2022/08/30 02:17:38;;;;;;;12.95;8.10;;;;;;;17.76;69.91;101957.22;5040732;28;20439;-60
2022/08/30 02:20:05;;;;;;;13.60;8.52;;;;;;;17.74;70.20;101956.28;5044730;28;20040;-60
2022/08/30 02:22:30;;;;;;;13.02;8.65;;;;;;;17.71;70.03;101959.81;5035945;28;21428;-60
2022/08/30 02:24:55;;;;;;;11.23;7.68;;;;;;;17.71;70.10;101956.25;5037259;28;20040;-60
2022/08/30 02:27:21;;;;;;;12.23;8.18;;;;;;;17.68;70.53;101961.50;5039200;28;20095;-60
2022/08/30 02:29:46;;;;;;;12.73;8.52;;;;;;;17.64;70.88;101957.97;5038870;28;20450;-61
2022/08/30 02:32:12;;;;;;;14.85;9.02;;;;;;;17.62;70.80;101959.66;5038575;28;20480;-61
2022/08/30 02:34:37;;;;;;;13.50;8.32;;;;;;;17.61;71.36;101962.28;5034869;28;20029;-60
2022/08/30 02:37:03;;;;;;;13.05;8.30;;;;;;;17.59;71.10;101962.28;5038089;28;20072;-61
2022/08/30 02:39:28;;;;;;;17.48;9.40;;;;;;;17.58;70.94;101957.84;5042674;28;20033;-60
2022/08/30 02:41:54;;;;;;;14.85;8.50;;;;;;;17.59;71.04;101954.38;5039128;28;20053;-60
2022/08/30 02:44:19;;;;;;;15.35;9.32;;;;;;;17.56;71.12;101954.34;5039652;28;20048;-61
2022/08/30 02:46:45;;;;;;;13.38;8.80;;;;;;;17.57;70.67;101956.09;5038633;28;20510;-60
2022/08/30 02:49:10;;;;;;;15.48;9.18;;;;;;;17.54;70.97;101954.31;5034789;28;20119;-60
2022/08/30 02:51:35;;;;;;;16.98;9.68;;;;;;;17.53;70.57;101952.53;5036549;28;20072;-60
2022/08/30 02:54:01;;;;;;;13.85;9.30;;;;;;;17.54;70.97;101956.06;5038455;28;20033;-61
2022/08/30 02:56:27;;;;;;;16.20;9.75;;;;;;;17.52;71.36;101948.16;5042027;28;20037;-61
2022/08/30 02:58:53;;;;;;;13.73;9.70;;;;;;;17.51;71.09;101950.75;5046245;28;20630;-60
2022/08/30 03:01:18;;;;;;;15.10;9.63;;;;;;;17.50;70.66;101936.69;5044206;28;20033;-61
2022/08/30 03:03:45;;;;;;;17.70;9.60;;;;;;;17.49;71.19;101944.56;5045101;28;20060;-60
2022/08/30 03:06:11;;;;;;;13.80;9.63;;;;;;;17.48;70.93;101943.72;5039983;28;20029;-60
2022/08/30 03:08:36;;;;;;;15.80;10.80;;;;;;;17.45;70.87;101935.75;5040550;28;20365;-59
2022/08/30 03:11:03;;;;;;;17.10;10.40;;;;;;;17.44;70.32;101939.25;5042522;28;20037;-59
2022/08/30 03:13:29;;;;;;;16.83;10.82;;;;;;;17.44;70.60;101943.63;5040900;28;20463;-59
2022/08/30 03:15:54;;;;;;;17.48;10.15;;;;;;;17.42;70.56;101940.97;5040315;28;20029;-59
2022/08/30 03:18:20;;;;;;;19.23;11.07;;;;;;;17.40;70.32;101937.44;5048888;28;20036;-60
2022/08/30 03:20:47;;;;;;;15.75;10.38;;;;;;;17.39;70.84;101935.66;5046744;28;20040;-61
2022/08/30 03:23:12;;;;;;;15.43;9.80;;;;;;;17.35;70.91;101939.13;5036991;28;20021;-58
2022/08/30 03:25:38;;;;;;;16.27;9.95;;;;;;;17.34;70.89;101942.63;5044493;28;20074;-61
2022/08/30 03:28:04;;;;;;;15.68;9.90;;;;;;;17.33;71.41;101938.22;5041604;28;22010;-60
2022/08/30 03:30:31;;;;;;;16.65;9.95;;;;;;;17.32;71.35;101945.25;5050556;28;20036;-61
2022/08/30 03:32:56;;;;;;;16.42;10.25;;;;;;;17.31;71.90;101939.97;5039652;28;20533;-60
2022/08/30 03:35:21;;;;;;;15.68;10.27;;;;;;;17.31;71.42;101939.97;5037156;28;20120;-60
2022/08/30 03:37:47;;;;;;;16.40;10.70;;;;;;;17.31;71.90;101945.25;5042308;28;20028;-61
2022/08/30 03:40:15;;;;;;;14.52;9.60;;;;;;;17.28;72.39;101943.44;5040543;28;20025;-61
2022/08/30 03:42:41;;;;;;;16.27;10.25;;;;;;;17.28;72.23;101940.81;5041979;28;20156;-61
2022/08/30 03:45:07;;;;;;;17.02;10.10;;;;;;;17.28;72.25;101938.16;5041376;28;20517;-60
2022/08/30 03:47:33;;;;;;;20.58;10.32;;;;;;;17.27;72.73;101935.53;5037523;28;20020;-60
2022/08/30 03:49:59;;;;;;;15.57;10.55;;;;;;;17.25;72.35;101942.50;5038771;28;20032;-61
2022/08/30 03:52:24;;;;;;;17.45;10.23;;;;;;;17.24;72.57;101939.00;5041020;28;20106;-60
2022/08/30 03:54:49;;;;;;;18.70;11.27;;;;;;;17.21;72.36;101942.47;5042601;28;20029;-60
2022/08/30 03:57:15;;;;;;;16.38;11.23;;;;;;;17.21;72.27;101937.19;5042554;28;20120;-60
2022/08/30 03:59:40;;;;;;;16.40;11.38;;;;;;;17.21;71.84;101937.19;5037464;28;20028;-60
2022/08/30 04:02:05;;;;;;;17.27;10.30;;;;;;;17.20;73.00;101940.69;5042745;28;20037;-60
2022/08/30 04:04:31;;;;;;;18.15;11.27;;;;;;;17.17;72.88;101942.41;5038090;28;20082;-60
2022/08/30 04:06:56;;;;;;;19.65;11.63;;;;;;;17.17;72.69;101945.03;5039690;28;20469;-60
2022/08/30 04:09:22;;;;;;;15.32;11.07;;;;;;;17.16;72.08;101931.00;5040847;28;20477;-60
2022/08/30 04:11:48;;;;;;;20.17;11.15;;;;;;;17.12;72.62;101938.81;5045293;28;20055;-59
2022/08/30 04:14:13;;;;;;;19.77;11.25;;;;;;;17.12;72.35;101947.63;5042958;28;20064;-61
2022/08/30 04:16:38;;;;;;;20.50;11.35;;;;;;;17.13;72.04;101933.59;5038228;28;20469;-60
2022/08/30 04:19:04;;;;;;;17.67;11.90;;;;;;;17.13;72.27;101945.84;5041533;28;20393;-60
2022/08/30 04:21:29;;;;;;;18.65;12.63;;;;;;;17.10;72.32;101938.78;5044698;28;20051;-61
2022/08/30 04:23:55;;;;;;;21.55;12.75;;;;;;;17.10;71.87;101944.06;5039775;28;20499;-61
2022/08/30 04:26:20;;;;;;;19.50;11.93;;;;;;;17.10;71.57;101948.44;5046012;28;20033;-61
2022/08/30 04:28:45;;;;;;;19.77;11.93;;;;;;;17.07;71.73;101946.66;5041425;28;20026;-61
2022/08/30 04:31:15;;;;;;;20.45;12.32;;;;;;;17.06;71.47;101946.63;5042914;28;20081;-60
2022/08/30 04:33:41;;;;;;;21.52;12.13;;;;;;;17.03;72.08;101945.72;5038430;28;20029;-61
2022/08/30 04:36:08;;;;;;;22.15;12.20;;;;;;;17.02;72.05;101946.59;5042841;28;20496;-60
2022/08/30 04:38:35;;;;;;;21.02;12.77;;;;;;;17.02;71.73;101950.97;5040354;28;20056;-60
2022/08/30 04:41:01;;;;;;;20.45;12.25;;;;;;;16.98;72.25;101954.44;5039871;28;20024;-61
2022/08/30 04:43:27;;;;;;;21.83;12.77;;;;;;;16.97;72.05;101966.69;5041139;28;20115;-61
2022/08/30 04:45:53;;;;;;;24.33;13.70;;;;;;;16.95;72.76;101952.63;5039557;28;20107;-61
2022/08/30 04:48:21;;;;;;;18.73;12.85;;;;;;;16.96;72.46;101962.31;5042378;28;20028;-61
2022/08/30 04:50:46;;;;;;;24.23;13.52;;;;;;;16.95;72.56;101959.66;5049804;28;20028;-61
2022/08/30 04:53:12;;;;;;;20.73;13.38;;;;;;;16.92;72.84;101965.75;5047043;28;20029;-61
2022/08/30 04:55:42;;;;;;;20.52;13.25;;;;;;;16.91;72.90;101965.72;5046016;28;20531;-60
2022/08/30 04:58:08;;;;;;;22.90;13.88;;;;;;;16.89;73.39;101975.31;5044377;28;20033;-61
2022/08/30 05:00:34;;;;;;;23.35;13.65;;;;;;;16.86;72.81;101971.75;5042047;28;20047;-61
2022/08/30 05:02:59;;;;;;;22.88;14.40;;;;;;;16.86;73.25;101977.03;5039296;28;20029;-60
2022/08/30 05:05:40;;;;;;;22.35;13.63;;;;;;;16.87;73.32;101972.63;5042316;28;20048;-60
2022/08/30 05:08:12;;;;;;;24.25;14.70;;;;;;;16.83;73.05;101976.97;5043787;28;20056;-61
2022/08/30 05:10:42;;;;;;;23.38;13.52;;;;;;;16.81;73.15;101978.69;5039784;28;20017;-60
2022/08/30 05:13:08;;;;;;;27.23;14.00;;;;;;;16.82;73.14;101972.56;5037987;28;20064;-61
2022/08/30 05:15:33;;;;;;;26.10;14.70;;;;;;;16.81;72.93;101968.16;5041054;28;20060;-62
2022/08/30 05:17:59;;;;;;;23.83;13.63;;;;;;;16.79;73.66;101969.03;5036246;28;20032;-61
2022/08/30 05:20:24;;;;;;;29.42;16.13;;;;;;;16.77;73.41;101976.91;5040362;28;20033;-61
2022/08/30 05:22:49;;;;;;;24.48;14.32;;;;;;;16.76;73.44;101975.13;5041702;28;20025;-61
2022/08/30 05:25:23;;;;;;;26.92;15.23;;;;;;;16.73;73.96;101979.44;5041699;28;20063;-61
2022/08/30 05:27:49;;;;;;;28.05;15.30;;;;;;;16.72;73.55;101983.81;5044223;28;20051;-61
2022/08/30 05:30:16;;;;;;;22.23;14.02;;;;;;;16.72;73.76;101986.44;5041074;28;20060;-61
2022/08/30 05:32:42;;;;;;;26.10;15.18;;;;;;;16.72;73.87;101990.84;5024296;28;20377;-60
2022/08/30 05:35:09;;;;;;;24.75;15.23;;;;;;;16.69;74.28;101997.81;5037375;28;20096;-60
2022/08/30 05:37:34;;;;;;;25.90;15.07;;;;;;;16.67;74.13;101990.75;5038103;28;20039;-61
2022/08/30 05:40:00;;;;;;;28.13;15.38;;;;;;;16.68;74.68;101995.16;5041789;28;20024;-60
2022/08/30 05:42:25;;;;;;;28.02;15.20;;;;;;;16.71;74.59;101992.56;5040741;28;20519;-61
2022/08/30 05:44:51;;;;;;;26.60;14.90;;;;;;;16.69;75.15;101996.94;5039268;28;20025;-60
2022/08/30 05:47:17;;;;;;;28.30;16.00;;;;;;;16.68;75.25;102001.31;5042323;28;20099;-58
2022/08/30 05:49:43;;;;;;;26.88;15.98;;;;;;;16.71;75.38;101997.81;5035899;28;20464;-61
2022/08/30 05:52:08;;;;;;;28.17;15.75;;;;;;;16.71;75.10;101994.31;5035328;28;20037;-61
2022/08/30 05:54:34;;;;;;;27.95;16.15;;;;;;;16.68;75.82;101997.78;5043982;28;20119;-61
2022/08/30 05:56:59;;;;;;;28.30;15.60;;;;;;;16.69;75.70;101989.91;5041299;28;20488;-61
2022/08/30 05:59:24;;;;;;;29.30;16.30;;;;;;;16.70;75.72;101990.81;5042011;28;20025;-61
2022/08/30 06:01:50;;;;;;;28.75;16.27;;;;;;;16.69;75.79;101989.91;5042505;28;20033;-61
2022/08/30 06:04:15;;;;;;;28.05;16.02;;;;;;;16.68;75.52;101995.16;5038393;28;20476;-61
2022/08/30 06:06:43;;;;;;;31.35;17.55;;;;;;;16.67;75.30;101994.28;5041530;28;20032;-61
2022/08/30 06:09:09;;;;;;;31.67;17.75;;;;;;;16.63;76.37;102002.97;5044626;28;20021;-60
2022/08/30 06:11:36;;;;;;;30.02;17.35;;;;;;;16.64;76.07;101996.84;5038231;28;20036;-61
2022/08/30 06:14:02;;;;;;;30.70;16.83;;;;;;;16.65;75.15;101998.59;5039712;28;20115;-60
2022/08/30 06:16:29;;;;;;;28.77;16.75;;;;;;;16.65;75.96;101997.72;5038085;28;20033;-61
2022/08/30 06:18:55;;;;;;;30.52;17.23;;;;;;;16.68;75.32;102008.31;5035137;28;20047;-61
2022/08/30 06:21:24;;;;;;;32.40;17.77;;;;;;;16.69;75.37;101999.56;5037958;28;20086;-60
2022/08/30 06:23:50;;;;;;;30.65;17.10;;;;;;;16.69;76.03;102005.69;5038138;28;20033;-60
2022/08/30 06:26:16;;;;;;;38.55;17.85;;;;;;;16.68;76.93;101997.78;5037005;28;20017;-60
2022/08/30 06:28:42;;;;;;;35.10;18.70;;;;;;;16.69;76.56;101997.81;5042273;28;20041;-61
2022/08/30 06:31:09;;;;;;;36.00;19.00;;;;;;;16.71;76.20;102002.22;5048141;28;20383;-61
2022/08/30 06:33:36;;;;;;;34.03;18.75;;;;;;;16.73;76.35;101990.88;5044935;28;20021;-61
2022/08/30 06:36:09;;;;;;;33.40;19.48;;;;;;;16.73;76.50;102001.38;5039369;28;20036;-61
2022/08/30 06:38:36;;;;;;;36.10;19.33;;;;;;;16.74;76.67;101987.34;5033809;28;20519;-61
2022/08/30 06:41:07;;;;;;;36.30;19.88;;;;;;;16.74;76.12;101982.09;5050151;28;20036;-61
2022/08/30 06:43:33;;;;;;;37.47;19.38;;;;;;;16.76;76.73;101985.63;5051563;28;20059;-61
2022/08/30 06:46:10;;;;;;;33.05;19.10;;;;;;;16.78;76.19;101991.81;5047374;28;20025;-61
2022/08/30 06:48:35;;;;;;;38.28;18.98;;;;;;;16.80;76.63;101987.47;5045468;28;20114;-61
2022/08/30 06:51:01;;;;;;;37.10;20.25;;;;;;;16.83;77.11;101990.16;5049728;28;20033;-61
2022/08/30 06:53:28;;;;;;;35.35;19.00;;;;;;;16.85;76.60;101983.16;5051030;28;20035;-60
2022/08/30 06:56:06;;;;;;;41.55;21.13;;;;;;;16.89;76.83;101993.75;5048954;28;20469;-60
2022/08/30 06:58:33;;;;;;;37.38;20.42;;;;;;;16.90;76.75;101985.91;5046810;28;20039;-60
2022/08/30 07:00:58;;;;;;;37.03;20.10;;;;;;;16.94;77.30;101990.34;5042957;28;20036;-60
2022/08/30 07:03:26;;;;;;;40.05;20.75;;;;;;;16.95;76.55;101992.13;5043879;28;20025;-59
2022/08/30 07:05:52;;;;;;;38.85;20.52;;;;;;;16.96;76.59;101988.63;5051832;28;20028;-60
2022/08/30 07:08:17;;;;;;;39.13;20.23;;;;;;;16.99;76.88;101988.66;5032559;28;20029;-60
2022/08/30 07:10:43;;;;;;;36.28;19.75;;;;;;;17.02;76.60;101990.47;5049004;28;20494;-60
2022/08/30 07:13:09;;;;;;;35.60;19.00;;;;;;;17.05;76.25;101993.16;5044809;28;20452;-60
2022/08/30 07:15:35;;;;;;;41.90;20.50;;;;;;;17.08;77.06;101990.56;5049424;28;20087;-61
2022/08/30 07:20:44;;;;;;;35.83;18.83;;;;;;;17.17;76.50;102001.22;5047435;28;20087;-61
2022/08/30 07:23:10;;;;;;;36.83;19.77;;;;;;;17.23;76.26;102007.44;5047609;28;20033;-60
2022/08/30 07:25:37;;;;;;;36.08;19.02;;;;;;;17.27;76.32;102009.28;5046896;28;20032;-61
2022/08/30 07:28:04;;;;;;;41.10;20.42;;;;;;;17.31;76.40;102011.97;5044721;28;20476;-62
2022/08/30 07:30:30;;;;;;;39.20;20.58;;;;;;;17.36;76.03;102012.91;5037696;28;20091;-60
2022/08/30 07:32:56;;;;;;;37.60;19.50;;;;;;;17.42;76.25;102006.84;5043888;28;20737;-61
2022/08/30 07:35:21;;;;;;;36.45;19.95;;;;;;;17.47;75.80;102002.53;5043001;28;20036;-61
2022/08/30 07:37:46;;;;;;;37.60;20.08;;;;;;;17.51;75.61;102009.63;5048278;28;20043;-61
2022/08/30 07:40:12;;;;;;;38.92;19.30;;;;;;;17.52;75.46;102011.41;5036725;28;20030;-60
2022/08/30 07:42:39;;;;;;;35.28;19.55;;;;;;;17.58;75.46;102009.69;5040126;28;20045;-60
2022/08/30 07:45:05;;;;;;;36.30;19.30;;;;;;;17.61;76.13;102013.28;5049336;28;20041;-61
2022/08/30 07:47:31;;;;;;;41.17;19.60;;;;;;;17.64;75.52;102008.03;5048266;28;20033;-61
2022/08/30 07:49:58;;;;;;;44.53;20.35;;;;;;;17.68;75.36;102009.84;5049761;28;20276;-61
2022/08/30 07:52:24;;;;;;;38.90;19.70;;;;;;;17.72;75.65;102009.00;5047365;28;20107;-60
2022/08/30 07:54:49;;;;;;;40.38;20.45;;;;;;;17.80;75.65;102016.13;5039881;28;20125;-61
2022/08/30 07:57:14;;;;;;;39.55;19.42;;;;;;;17.84;75.13;102012.66;5045118;28;20029;-60
2022/08/30 07:59:40;;;;;;;40.30;20.60;;;;;;;17.88;74.89;102015.34;5050001;28;20415;-61
2022/08/30 08:02:05;;;;;;;35.28;18.30;;;;;;;17.93;74.28;102009.28;5037315;28;20522;-61
2022/08/30 08:04:32;;;;;;;34.15;18.58;;;;;;;17.97;74.64;102011.97;5044392;28;20036;-59
2022/08/30 08:06:57;;;;;;;38.13;19.45;;;;;;;18.02;74.26;102012.91;5045941;28;20063;-60
2022/08/30 08:09:22;;;;;;;37.08;19.02;;;;;;;18.05;73.81;102012.94;5049309;28;20122;-60
2022/08/30 08:11:48;;;;;;;40.15;19.35;;;;;;;18.11;74.23;102017.41;5043749;28;20123;-59
2022/08/30 08:14:13;;;;;;;35.70;19.73;;;;;;;18.16;74.01;102010.44;5043871;28;20032;-60
2022/08/30 08:16:38;;;;;;;37.90;19.30;;;;;;;18.20;73.77;102016.63;5043445;28;20106;-60
2022/08/30 08:19:07;;;;;;;44.38;18.67;;;;;;;18.22;73.57;102014.91;5040221;28;20399;-60
2022/08/30 08:21:33;;;;;;;42.10;20.65;;;;;;;18.28;73.18;102014.06;5040492;28;20134;-60
2022/08/30 08:23:58;;;;;;;35.88;18.65;;;;;;;18.33;73.22;102015.00;5044700;28;20449;-58
2022/08/30 08:26:24;;;;;;;42.28;18.98;;;;;;;18.38;72.73;102019.47;5044746;28;20115;-60
2022/08/30 08:28:49;;;;;;;37.65;18.30;;;;;;;18.43;72.33;102019.50;5033853;28;20029;-60
2022/08/30 08:31:17;;;;;;;40.42;18.73;;;;;;;18.51;71.81;102025.75;5046400;28;20045;-59
2022/08/30 08:33:43;;;;;;;36.13;18.40;;;;;;;18.56;72.00;102026.66;5041349;28;20078;-60
2022/08/30 08:36:08;;;;;;;35.65;18.30;;;;;;;18.63;72.18;102018.81;5045486;28;20029;-59
2022/08/30 08:38:33;;;;;;;37.42;17.80;;;;;;;18.65;71.48;102017.06;5049275;28;20501;-60
2022/08/30 08:41:13;;;;;;;35.67;18.30;;;;;;;18.68;71.72;102027.66;5049072;28;20066;-60
2022/08/30 08:43:40;;;;;;;35.08;17.38;;;;;;;18.73;72.53;102033.88;5050024;28;20578;-60
2022/08/30 08:46:27;;;;;;;36.25;17.85;;;;;;;18.80;71.71;102024.22;5050293;28;20024;-59
2022/08/30 08:49:01;;;;;;;33.28;16.60;;;;;;;18.83;71.22;102019.88;5049307;28;20041;-60
2022/08/30 08:54:20;;;;;;;;;;;;;;;19.02;70.97;102028.84;5041501;28;20040;-61
2022/08/30 08:56:45;;;;;;;32.28;16.75;;;;;;;19.08;71.17;102026.25;5047451;28;20296;-59
2022/08/30 08:59:13;;;;;;;31.48;15.52;;;;;;;19.17;70.63;102030.72;5048214;28;20495;-60
2022/08/30 09:01:39;;;;;;;31.35;14.82;;;;;;;19.27;70.84;102029.03;5050064;28;20040;-59
2022/08/30 09:04:11;;;;;;;31.45;14.57;;;;;;;19.37;70.88;102027.34;5029697;28;20021;-60
2022/08/30 09:07:01;;;;;;;28.33;14.80;;;;;;;19.47;70.44;102023.84;5050094;28;20017;-61
2022/08/30 09:09:31;;;;;;;25.85;14.45;;;;;;;19.57;68.37;102022.16;5042372;28;20496;-60
2022/08/30 09:11:57;;;;;;;27.83;15.23;;;;;;;19.63;68.01;102024.81;5046589;28;20035;-60
2022/08/30 09:14:28;;;;;;;24.88;13.73;;;;;;;19.71;68.65;102022.22;5048950;28;20412;-61
2022/08/30 09:17:01;;;;;;;23.65;13.48;;;;;;;19.86;68.30;102029.38;5046982;28;20097;-61
2022/08/30 09:19:39;;;;;;;26.88;13.70;;;;;;;19.97;67.51;102022.34;5048842;28;20029;-61
2022/08/30 09:22:13;;;;;;;25.38;13.98;;;;;;;20.03;66.30;102018.84;5049880;28;20397;-61
2022/08/30 09:24:44;;;;;;;23.77;12.75;;;;;;;20.15;67.26;102018.88;5049551;28;20115;-61
2022/08/30 09:27:13;;;;;;;24.95;12.27;;;;;;;20.27;67.45;102018.03;5046932;28;20515;-61
2022/08/30 09:29:49;;;;;;;24.40;13.27;;;;;;;20.37;66.51;102024.22;5048215;28;20484;-60
2022/08/30 09:32:26;;;;;;;20.73;11.65;;;;;;;20.49;66.45;102021.59;5049510;28;20734;-61
2022/08/30 09:34:52;;;;;;;21.90;11.85;;;;;;;20.59;65.37;102027.78;5049146;28;20032;-61
2022/08/30 09:37:34;;;;;;;20.88;12.18;;;;;;;20.67;65.03;102029.56;5047727;28;20025;-61
2022/08/30 09:40:07;;;;;;;21.48;13.05;;;;;;;20.79;63.79;102020.75;5048737;28;20079;-61
2022/08/30 09:42:32;;;;;;;26.33;12.45;;;;;;;20.88;64.21;102019.00;5046184;28;20044;-61
2022/08/30 09:45:10;;;;;;;20.23;11.63;;;;;;;20.97;64.15;102019.88;5043649;28;20021;-60
2022/08/30 09:47:39;;;;;;;18.15;11.80;;;;;;;21.09;63.47;102015.44;5046802;28;20032;-60
2022/08/30 09:50:09;;;;;;;20.13;11.40;;;;;;;21.12;63.52;102012.78;5041863;28;20489;-60
2022/08/30 09:52:49;;;;;;;20.50;12.50;;;;;;;21.19;62.82;102017.19;5040719;28;20079;-60
2022/08/30 09:55:29;;;;;;;20.00;12.00;;;;;;;21.26;61.57;102016.31;5049741;28;20107;-61
2022/08/30 09:58:04;;;;;;;19.02;11.45;;;;;;;21.28;62.07;102014.53;5039986;28;20400;-61
2022/08/30 10:00:39;;;;;;;19.08;11.65;;;;;;;21.34;60.76;102021.56;5047497;28;20033;-61
2022/08/30 10:03:25;;;;;;;17.38;10.68;;;;;;;21.39;62.06;102016.25;5053786;28;20036;-60
2022/08/30 10:06:17;;;;;;;18.42;10.50;;;;;;;21.48;61.87;102018.91;5054815;28;20496;-60
2022/08/30 10:09:01;;;;;;;15.00;10.60;;;;;;;21.57;61.73;102018.03;5052623;28;20553;-60
2022/08/30 10:11:48;;;;;;;17.05;9.95;;;;;;;21.65;60.94;102022.41;5053952;28;20400;-60
2022/08/30 10:14:29;;;;;;;14.90;8.90;;;;;;;21.73;61.86;102016.19;5055340;28;20144;-60
2022/08/30 10:17:18;;;;;;;15.25;9.65;;;;;;;21.84;60.07;102015.25;5056136;28;20496;-60
2022/08/30 10:20:05;;;;;;;14.68;8.85;;;;;;;21.97;58.46;102001.91;5048569;28;20032;-61
2022/08/30 10:22:36;;;;;;;15.48;9.07;;;;;;;22.02;56.33;102010.75;5056812;28;20025;-60
2022/08/30 10:25:11;;;;;;;14.40;8.52;;;;;;;22.10;58.23;102005.38;5055989;28;20480;-61
2022/08/30 10:27:48;;;;;;;14.43;9.23;;;;;;;22.14;57.74;102002.69;5055171;28;20079;-51
2022/08/30 10:30:16;;;;;;;13.05;8.30;;;;;;;22.19;57.58;102008.00;5045936;28;20051;-49
2022/08/30 10:32:54;;;;;;;22.83;8.60;;;;;;;22.31;59.13;102009.69;5049896;28;20021;-51
2022/08/30 10:35:23;;;;;;;15.70;8.80;;;;;;;22.37;57.14;102005.22;5035993;28;20109;-50
2022/08/30 10:37:57;;;;;;;13.60;8.30;;;;;;;22.42;56.54;102010.53;5036810;28;20079;-52
2022/08/30 10:43:21;;;;;;;17.98;9.23;;;;;;;22.58;55.97;102008.63;5054947;28;20463;-50
2022/08/30 10:45:49;;;;;;;15.52;8.98;;;;;;;22.66;53.96;102001.47;5053911;28;20032;-49
2022/08/30 10:48:23;;;;;;;14.23;7.80;;;;;;;22.75;55.53;102003.16;5056128;28;20071;-49
2022/08/30 10:50:53;;;;;;;16.15;9.88;;;;;;;22.83;54.70;101995.16;5043257;28;20079;-50
2022/08/30 10:53:27;;;;;;;17.02;9.30;;;;;;;22.89;55.72;102000.41;5056124;28;20082;-50
2022/08/30 10:56:13;;;;;;;15.05;9.10;;;;;;;22.97;55.57;102001.22;5055077;28;20581;-52
2022/08/30 10:58:39;;;;;;;14.07;8.13;;;;;;;23.08;55.62;102001.97;5052721;28;20083;-60
2022/08/30 11:01:33;;;;;;;18.08;8.40;;;;;;;23.15;55.10;101992.19;5056309;28;20032;-60
2022/08/30 11:04:19;;;;;;;14.13;8.43;;;;;;;23.24;55.29;102002.72;5056467;28;20031;-60
2022/08/30 11:07:04;;;;;;;16.70;9.20;;;;;;;23.29;53.51;102000.03;5050325;28;20021;-59
2022/08/30 11:09:48;;;;;;;15.27;7.82;;;;;;;23.34;54.33;101998.19;5038063;28;20084;-60
2022/08/30 11:12:35;;;;;;;16.10;9.15;;;;;;;23.46;54.64;101996.28;5054134;28;20029;-60
2022/08/30 11:15:16;;;;;;;12.38;7.80;;;;;;;23.54;54.41;101994.44;5035149;28;20043;-59
2022/08/30 11:17:56;;;;;;;13.25;8.98;;;;;;;23.58;54.09;101991.69;5049978;28;20070;-59
2022/08/30 11:20:31;;;;;;;20.08;9.43;;;;;;;23.65;52.79;101991.63;5051710;28;20040;-59
2022/08/30 11:23:17;;;;;;;17.40;9.82;;;;;;;23.72;53.55;101999.53;5033576;28;20025;-59
2022/08/30 11:25:51;;;;;;;15.88;8.38;;;;;;;23.79;53.56;102000.31;5052632;28;20024;-59
2022/08/30 11:28:35;;;;;;;19.13;8.95;;;;;;;23.92;53.36;101988.63;5036664;28;20017;-60